Time,TemperatureF,DewpointF,PressureIn,WindDirection,WindDirectionDegrees,WindSpeedMPH,WindSpeedGustMPH,Humidity,HourlyPrecipIn,Conditions,Clouds,dailyrainin,SoftwareType,DateUTC
2013-08-02 00:01:00,64.7,64.1,29.83,SSW,198,0.0,2.3,98,0.00,RA,,0.00,WeatherDisplay:10.37,2013-08-02 04:01:00,
2013-08-02 00:02:00,64.7,64.1,29.83,SE,126,1.1,1.2,98,0.00,RA,,0.00,WeatherDisplay:10.37,2013-08-02 04:02:00,
2013-08-02 00:03:00,64.7,64.1,29.83,SSE,165,1.1,3.5,98,0.00,RA,,0.00,WeatherDisplay:10.37,2013-08-02 04:03:00,
2013-08-02 00:08:00,64.8,64.2,29.83,South,182,2.0,4.0,98,0.00,RA,,0.00,WeatherDisplay:10.37,2013-08-02 04:08:00,
2013-08-02 00:13:00,64.8,64.2,29.83,South,187,2.8,5.8,98,0.00,SCT,,0.00,WeatherDisplay:10.37,2013-08-02 04:13:00,
2013-08-02 00:17:00,64.8,64.2,29.83,South,187,1.5,3.5,98,0.00,SCT,,0.00,WeatherDisplay:10.37,2013-08-02 04:17:00,
2013-08-02 00:22:00,64.8,64.2,29.83,South,186,1.4,3.5,98,0.00,OVC,,0.00,WeatherDisplay:10.37,2013-08-02 04:22:00,
2013-08-02 00:27:00,64.8,64.2,29.82,South,177,0.2,2.3,98,0.00,OVC,,0.00,WeatherDisplay:10.37,2013-08-02 04:27:00,
2013-08-02 00:32:00,64.8,64.2,29.82,South,176,1.4,3.5,98,0.00,OVC,,0.00,WeatherDisplay:10.37,2013-08-02 04:32:00,
2013-08-02 00:37:00,64.8,64.2,29.82,South,176,0.1,2.3,98,0.00,OVC,,0.00,WeatherDisplay:10.37,2013-08-02 04:37:00,
2013-08-02 00:42:00,64.8,64.2,29.82,South,176,1.7,3.5,98,0.00,OVC,,0.00,WeatherDisplay:10.37,2013-08-02 04:42:00,
2013-08-02 00:47:00,64.8,64.2,29.82,South,175,0.7,3.5,98,0.00,OVC,,0.00,WeatherDisplay:10.37,2013-08-02 04:47:00,
2013-08-02 00:53:00,64.8,64.2,29.82,South,176,0.3,3.5,98,0.00,OVC,,0.00,WeatherDisplay:10.37,2013-08-02 04:53:00,
2013-08-02 00:58:00,64.8,64.2,29.82,SSW,193,2.7,3.5,98,0.00,OVC,,0.00,WeatherDisplay:10.37,2013-08-02 04:58:00,
2013-08-02 01:03:00,64.8,64.2,29.82,SSW,210,1.0,3.5,98,0.00,OVC,,0.00,WeatherDisplay:10.37,2013-08-02 05:03:00,
2013-08-02 01:08:00,64.8,64.2,29.81,SE,146,0.0,1.2,98,0.00,OVC,,0.00,WeatherDisplay:10.37,2013-08-02 05:08:00,
2013-08-02 01:13:00,64.8,64.2,29.81,SSE,150,0.0,0.0,98,0.00,OVC,,0.00,WeatherDisplay:10.37,2013-08-02 05:13:00,
2013-08-02 01:18:00,64.8,64.2,29.80,SSE,158,1.3,3.5,98,0.00,OVC,,0.00,WeatherDisplay:10.37,2013-08-02 05:18:00,
2013-08-02 01:23:00,64.8,64.2,29.81,South,171,2.2,3.5,98,0.00,OVC,,0.00,WeatherDisplay:10.37,2013-08-02 05:23:00,
2013-08-02 01:28:00,64.7,64.1,29.81,South,186,3.0,5.8,98,0.00,OVC,,0.00,WeatherDisplay:10.37,2013-08-02 05:28:00,
2013-08-02 01:33:00,64.7,64.1,29.81,SSE,158,0.8,3.5,98,0.00,OVC,,0.00,WeatherDisplay:10.37,2013-08-02 05:33:00,
2013-08-02 01:38:00,64.7,64.1,29.81,SSW,204,1.0,3.5,98,0.00,OVC,,0.00,WeatherDisplay:10.37,2013-08-02 05:38:00,
2013-08-02 01:44:00,64.8,64.2,29.80,SSW,202,0.0,0.0,98,0.00,BKN,,0.00,WeatherDisplay:10.37,2013-08-02 05:44:00,
2013-08-02 01:49:00,64.8,64.2,29.80,ENE,67,0.0,2.3,98,0.00,BKN,,0.00,WeatherDisplay:10.37,2013-08-02 05:49:00,
2013-08-02 01:54:00,64.8,64.2,29.80,SSW,205,0.0,1.2,98,0.00,BKN,,0.00,WeatherDisplay:10.37,2013-08-02 05:54:00,
2013-08-02 01:59:00,64.8,64.2,29.80,SSW,205,0.0,0.0,98,0.00,BKN,,0.00,WeatherDisplay:10.37,2013-08-02 05:59:00,
2013-08-02 02:04:00,64.8,64.2,29.81,SSW,205,0.0,1.2,98,0.00,OVC,,0.00,WeatherDisplay:10.37,2013-08-02 06:04:00,
2013-08-02 02:09:00,64.8,64.2,29.81,SSW,211,2.4,3.5,98,0.00,OVC,,0.00,WeatherDisplay:10.37,2013-08-02 06:09:00,
2013-08-02 02:14:00,64.8,64.2,29.80,SSW,211,0.0,0.0,98,0.00,OVC,,0.00,WeatherDisplay:10.37,2013-08-02 06:14:00,
2013-08-02 02:19:00,64.8,64.2,29.80,SSW,211,0.3,3.5,98,0.00,OVC,,0.00,WeatherDisplay:10.37,2013-08-02 06:19:00,
2013-08-02 02:25:00,64.8,64.2,29.80,SSW,211,0.0,0.0,98,0.00,OVC,,0.00,WeatherDisplay:10.37,2013-08-02 06:25:00,
2013-08-02 02:30:00,64.8,64.2,29.80,SSW,211,0.3,2.3,98,0.00,OVC,,0.00,WeatherDisplay:10.37,2013-08-02 06:30:00,
2013-08-02 02:35:00,64.8,64.5,29.80,SSW,211,1.1,2.3,99,0.00,OVC,,0.00,WeatherDisplay:10.37,2013-08-02 06:35:00,
2013-08-02 02:40:00,64.8,64.5,29.80,SSW,211,0.6,2.3,99,0.00,OVC,,0.00,WeatherDisplay:10.37,2013-08-02 06:40:00,
2013-08-02 02:45:00,64.7,64.4,29.80,SSW,210,0.6,1.2,99,0.00,OVC,,0.00,WeatherDisplay:10.37,2013-08-02 06:45:00,
2013-08-02 02:50:00,64.7,64.4,29.81,SSW,210,0.0,0.0,99,0.00,OVC,,0.00,WeatherDisplay:10.37,2013-08-02 06:50:00,
2013-08-02 02:55:00,64.7,64.4,29.81,SSW,210,1.1,2.3,99,0.00,OVC,,0.00,WeatherDisplay:10.37,2013-08-02 06:55:00,
2013-08-02 03:00:00,64.7,64.4,29.81,SSW,210,0.9,3.5,99,0.00,OVC,,0.00,WeatherDisplay:10.37,2013-08-02 07:00:00,
2013-08-02 03:05:00,64.7,64.1,29.80,SSW,210,0.0,0.0,98,0.00,OVC,,0.00,WeatherDisplay:10.37,2013-08-02 07:05:00,
2013-08-02 03:11:00,64.7,64.4,29.80,SSW,210,0.0,0.0,99,0.00,OVC,,0.00,WeatherDisplay:10.37,2013-08-02 07:11:00,
2013-08-02 03:16:00,64.7,64.1,29.80,SSW,210,0.0,0.0,98,0.00,OVC,,0.00,WeatherDisplay:10.37,2013-08-02 07:16:00,
2013-08-02 03:21:00,64.7,64.1,29.80,SSW,210,0.0,0.0,98,0.00,OVC,,0.00,WeatherDisplay:10.37,2013-08-02 07:21:00,
2013-08-02 03:26:00,64.6,64.0,29.80,SSW,210,0.0,0.0,98,0.00,OVC,,0.00,WeatherDisplay:10.37,2013-08-02 07:26:00,
2013-08-02 03:31:00,64.6,64.0,29.80,SSW,210,0.0,0.0,98,0.00,OVC,,0.00,WeatherDisplay:10.37,2013-08-02 07:31:00,
2013-08-02 03:36:00,64.5,63.9,29.80,SSW,210,0.9,2.3,98,0.00,OVC,,0.00,WeatherDisplay:10.37,2013-08-02 07:36:00,
2013-08-02 03:41:00,64.5,63.9,29.80,SSW,210,0.0,0.0,98,0.00,OVC,,0.00,WeatherDisplay:10.37,2013-08-02 07:41:00,
2013-08-02 03:47:00,64.5,64.2,29.80,SSW,210,0.9,2.3,99,0.00,OVC,,0.00,WeatherDisplay:10.37,2013-08-02 07:47:00,
2013-08-02 03:52:00,64.5,63.9,29.80,SSW,210,0.6,2.3,98,0.00,OVC,,0.00,WeatherDisplay:10.37,2013-08-02 07:52:00,
2013-08-02 03:57:00,64.4,64.1,29.79,SSW,210,0.0,0.0,99,0.00,OVC,,0.00,WeatherDisplay:10.37,2013-08-02 07:57:00,
2013-08-02 04:02:00,64.2,63.9,29.80,SSW,210,0.0,0.0,99,0.00,BKN,,0.00,WeatherDisplay:10.37,2013-08-02 08:02:00,
2013-08-02 04:07:00,64.1,63.8,29.80,SSW,210,0.0,0.0,99,0.00,BKN,,0.00,WeatherDisplay:10.37,2013-08-02 08:07:00,
2013-08-02 04:12:00,64.0,63.4,29.80,SSW,210,0.1,1.2,98,0.00,BKN,,0.00,WeatherDisplay:10.37,2013-08-02 08:12:00,
2013-08-02 04:17:00,64.0,63.4,29.80,SSW,210,0.0,0.0,98,0.00,BKN,,0.00,WeatherDisplay:10.37,2013-08-02 08:17:00,
2013-08-02 04:22:00,64.0,63.4,29.80,SSW,210,0.0,0.0,98,0.00,BKN,,0.00,WeatherDisplay:10.37,2013-08-02 08:22:00,
2013-08-02 04:27:00,63.9,63.3,29.80,SSW,210,0.0,0.0,98,0.00,BKN,,0.00,WeatherDisplay:10.37,2013-08-02 08:27:00,
2013-08-02 04:32:00,63.8,63.2,29.80,SSW,210,0.0,0.0,98,0.00,BKN,,0.00,WeatherDisplay:10.37,2013-08-02 08:32:00,
2013-08-02 04:37:00,63.7,63.4,29.80,SSW,210,0.0,1.2,99,0.00,BKN,,0.00,WeatherDisplay:10.37,2013-08-02 08:37:00,
2013-08-02 04:42:00,63.7,63.4,29.80,SSW,210,0.0,0.0,99,0.00,BKN,,0.00,WeatherDisplay:10.37,2013-08-02 08:42:00,
2013-08-02 04:47:00,63.6,63.3,29.81,SSW,210,0.0,0.0,99,0.00,BKN,,0.00,WeatherDisplay:10.37,2013-08-02 08:47:00,
2013-08-02 04:52:00,63.4,63.1,29.81,SSW,210,0.6,2.0,99,0.00,BKN,,0.00,WeatherDisplay:10.37,2013-08-02 08:52:00,
2013-08-02 04:57:00,63.1,62.5,29.81,SSW,210,0.0,1.2,98,0.00,BKN,,0.00,WeatherDisplay:10.37,2013-08-02 08:57:00,
2013-08-02 05:03:00,63.0,62.7,29.81,SSW,210,0.0,0.0,99,0.00,BKN,,0.00,WeatherDisplay:10.37,2013-08-02 09:03:00,
2013-08-02 05:08:00,62.9,62.6,29.81,SSW,210,0.0,0.0,99,0.00,BKN,,0.00,WeatherDisplay:10.37,2013-08-02 09:08:00,
2013-08-02 05:13:00,62.9,62.6,29.81,SSW,210,0.0,0.0,99,0.00,SCT,,0.00,WeatherDisplay:10.37,2013-08-02 09:13:00,
2013-08-02 05:14:00,62.9,62.3,29.81,SSW,210,0.0,0.0,98,0.00,SCT,,0.00,WeatherDisplay:10.37,2013-08-02 09:14:00,
2013-08-02 05:19:00,62.9,62.6,29.81,SSW,210,0.0,0.0,99,0.00,SCT,,0.00,WeatherDisplay:10.37,2013-08-02 09:19:00,
2013-08-02 05:24:00,62.8,62.5,29.81,SSW,210,0.0,0.0,99,0.00,SCT,,0.00,WeatherDisplay:10.37,2013-08-02 09:24:00,
2013-08-02 05:30:00,62.8,62.5,29.82,SSW,210,0.1,1.2,99,0.00,SCT,,0.00,WeatherDisplay:10.37,2013-08-02 09:30:00,
2013-08-02 05:35:00,62.8,62.5,29.82,SSW,210,0.0,0.0,99,0.00,SCT,,0.00,WeatherDisplay:10.37,2013-08-02 09:35:00,
2013-08-02 05:40:00,62.7,62.4,29.82,SSW,210,0.0,0.0,99,0.00,SCT,,0.00,WeatherDisplay:10.37,2013-08-02 09:40:00,
2013-08-02 05:45:00,62.4,62.1,29.82,SSW,210,0.0,0.0,99,0.00,SCT,,0.00,WeatherDisplay:10.37,2013-08-02 09:45:00,
2013-08-02 05:50:00,62.2,61.9,29.82,SSW,210,0.0,0.0,99,0.00,SCT,,0.00,WeatherDisplay:10.37,2013-08-02 09:50:00,
2013-08-02 05:55:00,62.2,61.9,29.83,SSW,210,0.4,2.0,99,0.00,SCT,,0.00,WeatherDisplay:10.37,2013-08-02 09:55:00,
2013-08-02 06:00:00,62.2,61.9,29.83,SSW,210,0.0,0.0,99,0.00,SCT,,0.00,WeatherDisplay:10.37,2013-08-02 10:00:00,
2013-08-02 06:05:00,62.2,61.9,29.83,SSW,210,0.9,2.3,99,0.00,SCT,,0.00,WeatherDisplay:10.37,2013-08-02 10:05:00,
2013-08-02 06:10:00,62.2,61.9,29.83,SSW,210,0.0,0.0,99,0.00,SCT,,0.00,WeatherDisplay:10.37,2013-08-02 10:10:00,
2013-08-02 06:15:00,62.2,61.9,29.83,SSW,210,1.0,2.3,99,0.00,SCT,,0.00,WeatherDisplay:10.37,2013-08-02 10:15:00,
2013-08-02 06:20:00,62.2,61.9,29.84,SSW,210,0.5,2.3,99,0.00,SCT,,0.00,WeatherDisplay:10.37,2013-08-02 10:20:00,
2013-08-02 06:26:00,62.3,62.0,29.84,SSW,210,2.0,3.5,99,0.00,SCT,,0.00,WeatherDisplay:10.37,2013-08-02 10:26:00,
2013-08-02 06:31:00,62.3,62.0,29.84,SW,218,2.2,3.5,99,0.00,SCT,,0.00,WeatherDisplay:10.37,2013-08-02 10:31:00,
2013-08-02 06:36:00,62.4,62.1,29.84,WNW,292,2.5,3.5,99,0.00,SCT,,0.00,WeatherDisplay:10.37,2013-08-02 10:36:00,
2013-08-02 06:41:00,62.5,62.2,29.84,WNW,292,1.2,3.5,99,0.00,SCT,,0.00,WeatherDisplay:10.37,2013-08-02 10:41:00,
2013-08-02 06:47:00,62.5,62.2,29.84,WNW,292,0.0,0.0,99,0.00,SCT,,0.00,WeatherDisplay:10.37,2013-08-02 10:47:00,
2013-08-02 06:52:00,62.5,62.2,29.84,WNW,292,0.0,2.3,99,0.00,SCT,,0.00,WeatherDisplay:10.37,2013-08-02 10:52:00,
2013-08-02 06:57:00,62.6,62.3,29.84,WNW,292,0.0,0.0,99,0.00,SCT,,0.00,WeatherDisplay:10.37,2013-08-02 10:57:00,
2013-08-02 07:02:00,62.6,62.3,29.84,WNW,292,2.7,4.0,99,0.00,FEW,,0.00,WeatherDisplay:10.37,2013-08-02 11:02:00,
2013-08-02 07:07:00,62.6,62.3,29.84,WNW,292,0.0,1.2,99,0.00,FEW,,0.00,WeatherDisplay:10.37,2013-08-02 11:07:00,
2013-08-02 07:13:00,62.7,62.4,29.84,WNW,292,1.2,2.0,99,0.00,FEW,,0.00,WeatherDisplay:10.37,2013-08-02 11:13:00,
2013-08-02 07:18:00,62.8,62.5,29.84,WNW,292,2.1,3.5,99,0.00,FEW,,0.00,WeatherDisplay:10.37,2013-08-02 11:18:00,
2013-08-02 07:23:00,62.8,62.5,29.84,WNW,292,0.0,0.0,99,0.00,FEW,,0.00,WeatherDisplay:10.37,2013-08-02 11:23:00,
2013-08-02 07:28:00,62.8,62.5,29.84,WNW,292,0.0,0.0,99,0.00,FEW,,0.00,WeatherDisplay:10.37,2013-08-02 11:28:00,
2013-08-02 07:33:00,62.8,62.5,29.84,WNW,292,0.0,0.0,99,0.00,FEW,,0.00,WeatherDisplay:10.37,2013-08-02 11:33:00,
2013-08-02 07:38:00,63.0,62.7,29.84,WNW,292,0.3,2.3,99,0.00,FEW,,0.00,WeatherDisplay:10.37,2013-08-02 11:38:00,
2013-08-02 07:43:00,63.3,63.0,29.84,WNW,292,0.1,1.2,99,0.00,FEW,,0.00,WeatherDisplay:10.37,2013-08-02 11:43:00,
2013-08-02 07:48:00,63.8,63.5,29.84,WNW,292,0.0,1.2,99,0.00,FEW,,0.00,WeatherDisplay:10.37,2013-08-02 11:48:00,
2013-08-02 07:53:00,64.4,64.1,29.84,WNW,292,0.1,1.2,99,0.00,FEW,,0.00,WeatherDisplay:10.37,2013-08-02 11:53:00,
2013-08-02 07:58:00,64.8,64.5,29.85,WNW,292,2.5,3.5,99,0.00,FEW,,0.00,WeatherDisplay:10.37,2013-08-02 11:58:00,
2013-08-02 08:03:00,65.1,65.1,29.85,WNW,292,0.2,4.0,100,0.00,FEW,,0.00,WeatherDisplay:10.37,2013-08-02 12:03:00,
2013-08-02 08:08:00,65.3,65.0,29.85,WNW,283,3.2,4.6,99,0.00,FEW,,0.00,WeatherDisplay:10.37,2013-08-02 12:08:00,
2013-08-02 08:13:00,65.2,64.9,29.85,West,274,3.0,4.6,99,0.00,SCT,,0.00,WeatherDisplay:10.37,2013-08-02 12:13:00,
2013-08-02 08:18:00,65.2,64.9,29.85,NW,317,1.6,4.6,99,0.00,SCT,,0.00,WeatherDisplay:10.37,2013-08-02 12:18:00,
2013-08-02 08:23:00,65.7,65.4,29.86,West,270,5.0,9.2,99,0.00,SCT,,0.00,WeatherDisplay:10.37,2013-08-02 12:23:00,
2013-08-02 08:29:00,65.8,65.5,29.86,WNW,292,4.8,9.2,99,0.00,SCT,,0.00,WeatherDisplay:10.37,2013-08-02 12:29:00,
2013-08-02 08:34:00,65.7,65.4,29.86,WNW,282,0.0,3.5,99,0.00,SCT,,0.00,WeatherDisplay:10.37,2013-08-02 12:34:00,
2013-08-02 08:39:00,65.9,65.3,29.86,West,281,3.1,5.8,98,0.00,SCT,,0.00,WeatherDisplay:10.37,2013-08-02 12:39:00,
2013-08-02 08:44:00,66.3,65.7,29.86,NW,309,2.5,6.0,98,0.00,SCT,,0.00,WeatherDisplay:10.37,2013-08-02 12:44:00,
2013-08-02 08:49:00,66.8,66.2,29.85,WNW,288,5.9,9.2,98,0.00,SCT,,0.00,WeatherDisplay:10.37,2013-08-02 12:49:00,
2013-08-02 08:54:00,67.2,66.3,29.85,NNW,346,1.6,10.4,97,0.00,SCT,,0.00,WeatherDisplay:10.37,2013-08-02 12:54:00,
2013-08-02 08:59:00,67.9,67.0,29.86,WNW,290,3.8,5.8,97,0.00,SCT,,0.00,WeatherDisplay:10.37,2013-08-02 12:59:00,
2013-08-02 09:04:00,68.2,66.7,29.85,SW,236,5.9,10.4,95,0.00,BKN,,0.00,WeatherDisplay:10.37,2013-08-02 13:04:00,
2013-08-02 09:09:00,68.8,67.0,29.85,WNW,302,3.3,6.9,94,0.00,BKN,,0.00,WeatherDisplay:10.37,2013-08-02 13:09:00,
2013-08-02 09:15:00,69.4,67.6,29.85,West,276,3.5,9.2,94,0.00,BKN,,0.00,WeatherDisplay:10.37,2013-08-02 13:15:00,
2013-08-02 09:20:00,69.7,67.0,29.86,NW,306,4.8,9.2,91,0.00,BKN,,0.00,WeatherDisplay:10.37,2013-08-02 13:20:00,
2013-08-02 09:25:00,70.1,67.0,29.86,NNW,347,2.0,5.8,90,0.00,BKN,,0.00,WeatherDisplay:10.37,2013-08-02 13:25:00,
2013-08-02 09:30:00,70.3,66.6,29.86,WNW,294,5.0,6.9,88,0.00,BKN,,0.00,WeatherDisplay:10.37,2013-08-02 13:30:00,
2013-08-02 09:35:00,70.3,66.6,29.86,NW,304,1.6,3.5,88,0.00,BKN,,0.00,WeatherDisplay:10.37,2013-08-02 13:35:00,
2013-08-02 09:40:00,70.4,67.0,29.85,West,278,3.0,6.9,89,0.00,BKN,,0.00,WeatherDisplay:10.37,2013-08-02 13:40:00,
2013-08-02 09:46:00,70.7,67.0,29.85,West,275,4.6,10.4,88,0.00,BKN,,0.00,WeatherDisplay:10.37,2013-08-02 13:46:00,
2013-08-02 09:51:00,71.0,67.3,29.85,WNW,293,4.2,6.9,88,0.00,BKN,,0.00,WeatherDisplay:10.37,2013-08-02 13:51:00,
2013-08-02 09:56:00,71.5,68.4,29.85,NNW,346,4.2,5.8,90,0.00,SCT,,0.00,WeatherDisplay:10.37,2013-08-02 13:56:00,
2013-08-02 10:01:00,71.8,67.0,29.85,West,266,8.8,11.5,85,0.00,SCT,,0.00,WeatherDisplay:10.37,2013-08-02 14:01:00,
2013-08-02 10:06:00,71.3,66.2,29.85,WSW,255,5.1,9.2,84,0.00,SCT,,0.00,WeatherDisplay:10.37,2013-08-02 14:06:00,
2013-08-02 10:11:00,71.2,66.8,29.85,NW,312,1.1,3.5,86,0.00,SCT,,0.00,WeatherDisplay:10.37,2013-08-02 14:11:00,
2013-08-02 10:16:00,71.5,66.1,29.85,West,268,6.6,10.4,83,0.00,SCT,,0.00,WeatherDisplay:10.37,2013-08-02 14:16:00,
2013-08-02 10:21:00,71.9,67.1,29.85,WNW,286,4.4,6.9,85,0.00,SCT,,0.00,WeatherDisplay:10.37,2013-08-02 14:21:00,
2013-08-02 10:27:00,72.1,66.6,29.86,West,270,5.1,9.0,83,0.00,SCT,,0.00,WeatherDisplay:10.37,2013-08-02 14:27:00,
2013-08-02 10:32:00,72.3,66.5,29.85,WNW,296,6.4,10.4,82,0.00,SCT,,0.00,WeatherDisplay:10.37,2013-08-02 14:32:00,
2013-08-02 10:36:00,72.7,67.6,29.85,WSW,246,3.2,5.0,84,0.00,SCT,,0.00,WeatherDisplay:10.37,2013-08-02 14:36:00,
2013-08-02 10:41:00,72.5,65.6,29.86,West,268,6.2,11.5,79,0.00,SCT,,0.00,WeatherDisplay:10.37,2013-08-02 14:41:00,
2013-08-02 10:47:00,72.0,65.8,29.86,WSW,252,8.6,11.5,81,0.00,SCT,,0.00,WeatherDisplay:10.37,2013-08-02 14:47:00,
2013-08-02 10:52:00,72.0,65.5,29.86,WNW,295,0.9,6.9,80,0.00,SCT,,0.00,WeatherDisplay:10.37,2013-08-02 14:52:00,
2013-08-02 10:57:00,72.4,65.5,29.86,WSW,256,5.7,9.2,79,0.00,SCT,,0.00,WeatherDisplay:10.37,2013-08-02 14:57:00,
2013-08-02 11:02:00,72.9,66.4,29.86,WNW,287,5.2,10.4,80,0.00,SCT,,0.00,WeatherDisplay:10.37,2013-08-02 15:02:00,
2013-08-02 11:07:00,73.0,64.6,29.86,WSW,254,11.0,13.8,75,0.00,SCT,,0.00,WeatherDisplay:10.37,2013-08-02 15:07:00,
2013-08-02 11:12:00,73.0,65.0,29.86,West,259,10.0,17.3,76,0.00,SCT,,0.00,WeatherDisplay:10.37,2013-08-02 15:12:00,
2013-08-02 11:17:00,73.2,65.6,29.86,WNW,296,8.1,11.5,77,0.00,SCT,,0.00,WeatherDisplay:10.37,2013-08-02 15:17:00,
2013-08-02 11:22:00,73.5,65.5,29.86,West,281,13.1,16.1,76,0.00,SCT,,0.00,WeatherDisplay:10.37,2013-08-02 15:22:00,
2013-08-02 11:27:00,73.9,66.6,29.86,WNW,298,5.9,11.5,78,0.00,SCT,,0.00,WeatherDisplay:10.37,2013-08-02 15:27:00,
2013-08-02 11:32:00,74.3,65.9,29.85,WNW,301,6.0,11.5,75,0.00,SCT,,0.00,WeatherDisplay:10.37,2013-08-02 15:32:00,
2013-08-02 11:37:00,74.3,65.5,29.85,West,281,5.6,11.5,74,0.00,SCT,,0.00,WeatherDisplay:10.37,2013-08-02 15:37:00,
2013-08-02 11:42:00,74.7,66.6,29.85,West,269,3.6,8.1,76,0.00,SCT,,0.00,WeatherDisplay:10.37,2013-08-02 15:42:00,
2013-08-02 11:47:00,75.1,65.1,29.85,West,271,8.2,11.5,71,0.00,SCT,,0.00,WeatherDisplay:10.37,2013-08-02 15:47:00,
2013-08-02 11:53:00,75.4,66.1,29.85,WNW,302,4.5,9.2,73,0.00,SCT,,0.00,WeatherDisplay:10.37,2013-08-02 15:53:00,
2013-08-02 11:58:00,75.3,66.4,29.85,WNW,294,3.7,6.9,74,0.00,SCT,,0.00,WeatherDisplay:10.37,2013-08-02 15:58:00,
2013-08-02 12:03:00,74.7,64.7,29.85,WNW,294,2.1,5.8,71,0.00,SCT,,0.00,WeatherDisplay:10.37,2013-08-02 16:03:00,
2013-08-02 12:08:00,74.7,65.1,29.84,West,270,13.2,17.3,72,0.00,SCT,,0.00,WeatherDisplay:10.37,2013-08-02 16:08:00,
2013-08-02 12:13:00,74.5,63.2,29.85,WNW,288,9.7,12.7,68,0.00,SCT,,0.00,WeatherDisplay:10.37,2013-08-02 16:13:00,
2013-08-02 12:18:00,74.7,65.5,29.84,West,280,8.7,11.0,73,0.00,SCT,,0.00,WeatherDisplay:10.37,2013-08-02 16:18:00,
2013-08-02 12:23:00,75.2,64.7,29.85,WSW,246,7.0,11.5,70,0.00,SCT,,0.00,WeatherDisplay:10.37,2013-08-02 16:23:00,
2013-08-02 12:28:00,75.7,63.1,29.85,West,276,8.9,16.1,65,0.00,SCT,,0.00,WeatherDisplay:10.37,2013-08-02 16:28:00,
2013-08-02 12:33:00,75.7,64.0,29.85,West,268,10.4,16.1,67,0.00,SCT,,0.00,WeatherDisplay:10.37,2013-08-02 16:33:00,
2013-08-02 12:38:00,75.8,66.1,29.84,North,5,3.9,9.2,72,0.00,SCT,,0.00,WeatherDisplay:10.37,2013-08-02 16:38:00,
2013-08-02 12:43:00,76.3,65.0,29.84,West,279,6.8,12.7,68,0.00,SCT,,0.00,WeatherDisplay:10.37,2013-08-02 16:43:00,
2013-08-02 12:48:00,76.6,65.2,29.84,NW,323,4.6,10.4,68,0.00,SCT,,0.00,WeatherDisplay:10.37,2013-08-02 16:48:00,
2013-08-02 12:53:00,77.1,66.1,29.83,WSW,250,8.1,11.5,69,0.00,SCT,,0.00,WeatherDisplay:10.37,2013-08-02 16:53:00,
2013-08-02 12:59:00,77.3,64.2,29.83,WSW,240,4.4,11.5,64,0.00,SCT,,0.00,WeatherDisplay:10.37,2013-08-02 16:59:00,
2013-08-02 13:04:00,77.6,65.3,29.83,West,269,5.4,11.5,66,0.00,BKN,,0.00,WeatherDisplay:10.37,2013-08-02 17:04:00,
2013-08-02 13:09:00,77.6,65.3,29.83,SW,224,11.0,15.0,66,0.00,BKN,,0.00,WeatherDisplay:10.37,2013-08-02 17:09:00,
2013-08-02 13:14:00,77.4,63.4,29.83,West,263,8.3,12.7,62,0.00,BKN,,0.00,WeatherDisplay:10.37,2013-08-02 17:14:00,
2013-08-02 13:19:00,77.3,65.5,29.83,WNW,302,6.6,10.4,67,0.00,BKN,,0.00,WeatherDisplay:10.37,2013-08-02 17:19:00,
2013-08-02 13:24:00,77.2,62.7,29.83,WNW,295,4.5,10.4,61,0.00,BKN,,0.00,WeatherDisplay:10.37,2013-08-02 17:24:00,
2013-08-02 13:29:00,77.0,63.9,29.83,West,267,4.9,6.9,64,0.00,BKN,,0.00,WeatherDisplay:10.37,2013-08-02 17:29:00,
2013-08-02 13:34:00,77.1,64.0,29.83,WSW,244,8.2,11.5,64,0.00,BKN,,0.00,WeatherDisplay:10.37,2013-08-02 17:34:00,
2013-08-02 13:39:00,76.8,62.3,29.83,West,265,10.1,12.7,61,0.00,BKN,,0.00,WeatherDisplay:10.37,2013-08-02 17:39:00,
2013-08-02 13:44:00,75.9,63.7,29.83,WSW,240,6.0,9.2,66,0.00,BKN,,0.00,WeatherDisplay:10.37,2013-08-02 17:44:00,
2013-08-02 13:49:00,76.2,62.7,29.83,West,263,8.9,11.5,63,0.00,BKN,,0.00,WeatherDisplay:10.37,2013-08-02 17:49:00,
2013-08-02 13:54:00,77.0,64.3,29.83,SW,234,6.8,6.9,65,0.00,BKN,,0.00,WeatherDisplay:10.37,2013-08-02 17:54:00,
2013-08-02 14:00:00,77.3,62.8,29.82,WNW,287,1.5,6.0,61,0.00,BKN,,0.00,WeatherDisplay:10.37,2013-08-02 18:00:00,
2013-08-02 14:04:00,77.3,65.9,29.82,WNW,290,3.4,6.9,68,0.00,BKN,,0.00,WeatherDisplay:10.37,2013-08-02 18:04:00,
2013-08-02 14:05:00,77.3,65.9,29.82,WNW,290,3.4,6.9,68,0.00,BKN,,0.00,WeatherDisplay:10.37,2013-08-02 18:05:00,
2013-08-02 14:10:00,77.5,63.0,29.83,SW,215,5.6,10.4,61,0.00,BKN,,0.00,WeatherDisplay:10.37,2013-08-02 18:10:00,
2013-08-02 14:15:00,77.7,62.7,29.83,WSW,242,7.9,11.5,60,0.00,BKN,,0.00,WeatherDisplay:10.37,2013-08-02 18:15:00,
2013-08-02 14:20:00,76.7,62.2,29.83,WNW,292,8.7,11.5,61,0.00,BKN,,0.00,WeatherDisplay:10.37,2013-08-02 18:20:00,
2013-08-02 14:25:00,76.3,61.4,29.83,WSW,238,6.1,10.4,60,0.00,BKN,,0.00,WeatherDisplay:10.37,2013-08-02 18:25:00,
2013-08-02 14:30:00,76.8,62.8,29.83,WSW,244,3.7,9.2,62,0.00,BKN,,0.00,WeatherDisplay:10.37,2013-08-02 18:30:00,
2013-08-02 14:35:00,77.2,63.2,29.82,SW,235,4.3,8.1,62,0.00,BKN,,0.00,WeatherDisplay:10.37,2013-08-02 18:35:00,
2013-08-02 14:40:00,76.8,61.9,29.82,WNW,294,5.2,10.4,60,0.00,BKN,,0.00,WeatherDisplay:10.37,2013-08-02 18:40:00,
2013-08-02 14:45:00,76.7,63.6,29.82,West,261,4.5,6.9,64,0.00,BKN,,0.00,WeatherDisplay:10.37,2013-08-02 18:45:00,
2013-08-02 14:50:00,76.8,63.7,29.82,West,262,5.6,11.5,64,0.00,BKN,,0.00,WeatherDisplay:10.37,2013-08-02 18:50:00,
2013-08-02 14:55:00,77.0,63.0,29.82,West,277,2.9,6.9,62,0.00,BKN,,0.00,WeatherDisplay:10.37,2013-08-02 18:55:00,
2013-08-02 15:00:00,76.8,64.6,29.83,West,271,6.0,7.0,66,0.00,BKN,,0.00,WeatherDisplay:10.37,2013-08-02 19:00:00,
2013-08-02 15:06:00,76.6,65.2,29.82,NNW,344,4.5,5.8,68,0.00,BKN,,0.00,WeatherDisplay:10.37,2013-08-02 19:06:00,
2013-08-02 15:11:00,76.4,65.9,29.82,NW,321,0.8,3.5,70,0.00,BKN,,0.00,WeatherDisplay:10.37,2013-08-02 19:11:00,
2013-08-02 15:16:00,76.1,65.6,29.82,NW,319,1.2,4.0,70,0.00,BKN,,0.00,WeatherDisplay:10.37,2013-08-02 19:16:00,
2013-08-02 15:21:00,76.2,66.9,29.82,WNW,297,2.1,3.5,73,0.00,BKN,,0.00,WeatherDisplay:10.37,2013-08-02 19:21:00,
2013-08-02 15:26:00,77.0,67.3,29.82,NNW,334,0.0,1.2,72,0.00,BKN,,0.00,WeatherDisplay:10.37,2013-08-02 19:26:00,
2013-08-02 15:31:00,77.9,66.1,29.82,West,270,2.2,4.0,67,0.00,BKN,,0.00,WeatherDisplay:10.37,2013-08-02 19:31:00,
2013-08-02 15:36:00,78.4,65.2,29.82,WSW,258,0.0,2.3,64,0.00,BKN,,0.00,WeatherDisplay:10.37,2013-08-02 19:36:00,
2013-08-02 15:41:00,78.7,67.2,29.81,West,267,2.6,5.8,68,0.00,BKN,,0.00,WeatherDisplay:10.37,2013-08-02 19:41:00,
2013-08-02 15:46:00,79.4,65.7,29.81,WNW,284,2.4,6.0,63,0.00,BKN,,0.00,WeatherDisplay:10.37,2013-08-02 19:46:00,
2013-08-02 15:51:00,80.0,66.7,29.81,WSW,252,3.3,5.0,64,0.00,BKN,,0.00,WeatherDisplay:10.37,2013-08-02 19:51:00,
2013-08-02 15:56:00,80.3,66.1,29.81,WSW,254,7.3,10.4,62,0.00,BKN,,0.00,WeatherDisplay:10.37,2013-08-02 19:56:00,
2013-08-02 16:01:00,80.3,64.2,29.81,SSW,202,6.0,6.9,58,0.00,BKN,,0.00,WeatherDisplay:10.37,2013-08-02 20:01:00,
2013-08-02 16:07:00,80.3,62.7,29.81,WSW,252,2.6,6.0,55,0.00,BKN,,0.00,WeatherDisplay:10.37,2013-08-02 20:07:00,
2013-08-02 16:12:00,80.2,65.5,29.81,WSW,250,9.2,11.5,61,0.00,BKN,,0.00,WeatherDisplay:10.37,2013-08-02 20:12:00,
2013-08-02 16:17:00,79.9,63.3,29.82,WSW,245,5.9,9.2,57,0.00,BKN,,0.00,WeatherDisplay:10.37,2013-08-02 20:17:00,
2013-08-02 16:22:00,80.0,65.3,29.81,WSW,242,4.1,10.4,61,0.00,BKN,,0.00,WeatherDisplay:10.37,2013-08-02 20:22:00,
2013-08-02 16:27:00,80.1,65.0,29.81,SW,234,4.6,6.0,60,0.00,BKN,,0.00,WeatherDisplay:10.37,2013-08-02 20:27:00,
2013-08-02 16:32:00,80.4,64.3,29.81,WSW,252,9.5,13.0,58,0.00,BKN,,0.00,WeatherDisplay:10.37,2013-08-02 20:32:00,
2013-08-02 16:37:00,80.7,64.1,29.80,WSW,240,7.9,11.5,57,0.00,BKN,,0.00,WeatherDisplay:10.37,2013-08-02 20:37:00,
2013-08-02 16:42:00,81.0,64.8,29.80,West,265,2.6,4.6,58,0.00,BKN,,0.00,WeatherDisplay:10.37,2013-08-02 20:42:00,
2013-08-02 16:47:00,81.3,66.1,29.80,WSW,246,2.4,5.8,60,0.00,BKN,,0.00,WeatherDisplay:10.37,2013-08-02 20:47:00,
2013-08-02 16:53:00,81.6,65.9,29.80,SW,227,7.7,8.0,59,0.00,BKN,,0.00,WeatherDisplay:10.37,2013-08-02 20:53:00,
2013-08-02 16:58:00,81.8,66.6,29.80,WSW,258,4.9,7.0,60,0.00,BKN,,0.00,WeatherDisplay:10.37,2013-08-02 20:58:00,
2013-08-02 17:03:00,81.9,65.2,29.80,WSW,246,3.2,4.6,57,0.00,BKN,,0.00,WeatherDisplay:10.37,2013-08-02 21:03:00,
2013-08-02 17:08:00,81.6,64.4,29.80,WSW,251,3.1,5.8,56,0.00,BKN,,0.00,WeatherDisplay:10.37,2013-08-02 21:08:00,
2013-08-02 17:13:00,80.9,64.7,29.80,WSW,243,2.8,3.5,58,0.00,BKN,,0.00,WeatherDisplay:10.37,2013-08-02 21:13:00,
2013-08-02 17:18:00,80.1,64.5,29.80,WSW,254,2.6,4.6,59,0.00,BKN,,0.00,WeatherDisplay:10.37,2013-08-02 21:18:00,
2013-08-02 17:23:00,80.2,66.0,29.80,West,267,3.8,4.6,62,0.00,BKN,,0.00,WeatherDisplay:10.37,2013-08-02 21:23:00,
2013-08-02 17:28:00,80.6,64.5,29.80,WSW,254,5.8,6.0,58,0.00,BKN,,0.00,WeatherDisplay:10.37,2013-08-02 21:28:00,
2013-08-02 17:33:00,80.9,66.2,29.80,West,261,4.6,4.6,61,0.00,BKN,,0.00,WeatherDisplay:10.37,2013-08-02 21:33:00,
2013-08-02 17:39:00,80.8,63.6,29.80,WSW,239,2.2,4.6,56,0.00,BKN,,0.00,WeatherDisplay:10.37,2013-08-02 21:39:00,
2013-08-02 17:44:00,79.8,63.7,29.80,WSW,253,2.9,5.0,58,0.00,BKN,,0.00,WeatherDisplay:10.37,2013-08-02 21:44:00,
2013-08-02 17:49:00,78.9,63.4,29.80,WSW,244,3.9,4.6,59,0.00,BKN,,0.00,WeatherDisplay:10.37,2013-08-02 21:49:00,
2013-08-02 17:54:00,78.1,61.6,29.80,SSW,211,4.3,7.0,57,0.00,BKN,,0.00,WeatherDisplay:10.37,2013-08-02 21:54:00,
2013-08-02 17:59:00,77.1,61.7,29.80,WSW,257,4.3,6.9,59,0.00,BKN,,0.00,WeatherDisplay:10.37,2013-08-02 21:59:00,
2013-08-02 18:04:00,76.4,61.5,29.80,West,259,4.5,9.0,60,0.00,BKN,,0.00,WeatherDisplay:10.37,2013-08-02 22:04:00,
2013-08-02 18:09:00,75.7,61.3,29.81,WSW,238,6.2,10.0,61,0.00,BKN,,0.00,WeatherDisplay:10.37,2013-08-02 22:09:00,
2013-08-02 18:14:00,75.1,60.7,29.81,WSW,255,6.3,11.5,61,0.00,BKN,,0.00,WeatherDisplay:10.37,2013-08-02 22:14:00,
2013-08-02 18:19:00,75.1,62.5,29.81,West,277,5.4,9.2,65,0.00,BKN,,0.00,WeatherDisplay:10.37,2013-08-02 22:19:00,
2013-08-02 18:25:00,75.6,61.7,29.81,West,277,7.3,11.5,62,0.00,BKN,,0.00,WeatherDisplay:10.37,2013-08-02 22:25:00,
2013-08-02 18:30:00,75.9,61.5,29.81,SW,234,7.3,10.4,61,0.00,BKN,,0.00,WeatherDisplay:10.37,2013-08-02 22:30:00,
2013-08-02 18:35:00,75.7,61.8,29.81,WSW,255,4.2,5.8,62,0.00,BKN,,0.00,WeatherDisplay:10.37,2013-08-02 22:35:00,
2013-08-02 18:40:00,75.1,61.6,29.81,West,269,4.3,6.9,63,0.00,BKN,,0.00,WeatherDisplay:10.37,2013-08-02 22:40:00,
2013-08-02 18:45:00,74.4,60.5,29.81,West,276,4.0,6.9,62,0.00,BKN,,0.00,WeatherDisplay:10.37,2013-08-02 22:45:00,
2013-08-02 18:50:00,73.9,60.5,29.81,West,266,3.3,4.6,63,0.00,BKN,,0.00,WeatherDisplay:10.37,2013-08-02 22:50:00,
2013-08-02 18:55:00,73.5,61.0,29.82,WNW,294,3.3,5.0,65,0.00,BKN,,0.00,WeatherDisplay:10.37,2013-08-02 22:55:00,
2013-08-02 19:00:00,73.2,61.2,29.82,WNW,294,4.0,10.4,66,0.00,BKN,,0.00,WeatherDisplay:10.37,2013-08-02 23:00:00,
2013-08-02 19:06:00,73.0,61.4,29.82,West,263,4.0,11.5,67,0.00,BKN,,0.00,WeatherDisplay:10.37,2013-08-02 23:06:00,
2013-08-02 19:11:00,72.8,61.6,29.82,West,281,2.0,4.6,68,0.00,BKN,,0.00,WeatherDisplay:10.37,2013-08-02 23:11:00,
2013-08-02 19:16:00,72.4,62.1,29.83,WSW,250,5.2,10.4,70,0.00,BKN,,0.00,WeatherDisplay:10.37,2013-08-02 23:16:00,
2013-08-02 19:21:00,72.1,61.0,29.83,WSW,250,5.5,12.7,68,0.00,BKN,,0.00,WeatherDisplay:10.37,2013-08-02 23:21:00,
2013-08-02 19:27:00,71.9,61.6,29.83,West,266,2.0,4.6,70,0.00,BKN,,0.00,WeatherDisplay:10.37,2013-08-02 23:27:00,
2013-08-02 19:32:00,71.7,61.0,29.83,West,265,5.3,5.8,69,0.00,BKN,,0.00,WeatherDisplay:10.37,2013-08-02 23:32:00,
2013-08-02 19:37:00,71.5,61.2,29.83,West,275,3.7,6.9,70,0.00,BKN,,0.00,WeatherDisplay:10.37,2013-08-02 23:37:00,
2013-08-02 19:41:00,71.4,61.1,29.83,WSW,240,4.5,5.0,70,0.00,BKN,,0.00,WeatherDisplay:10.37,2013-08-02 23:41:00,
2013-08-02 19:46:00,71.2,60.5,29.82,West,273,4.0,5.8,69,0.00,BKN,,0.00,WeatherDisplay:10.37,2013-08-02 23:46:00,
2013-08-02 19:47:00,71.2,60.5,29.82,West,273,4.0,5.8,69,0.00,BKN,,0.00,WeatherDisplay:10.37,2013-08-02 23:47:00,
2013-08-02 19:52:00,71.0,60.7,29.83,West,265,4.7,9.2,70,0.00,BKN,,0.00,WeatherDisplay:10.37,2013-08-02 23:52:00,
2013-08-02 19:56:00,70.9,60.6,29.83,West,279,3.3,5.8,70,0.00,BKN,,0.00,WeatherDisplay:10.37,2013-08-02 23:56:00,
2013-08-02 20:02:00,70.8,60.5,29.83,WNW,298,2.9,5.0,70,0.00,BKN,,0.00,WeatherDisplay:10.37,2013-08-03 00:02:00,
2013-08-02 20:07:00,70.8,60.1,29.83,WSW,248,4.1,6.0,69,0.00,BKN,,0.00,WeatherDisplay:10.37,2013-08-03 00:07:00,
2013-08-02 20:12:00,70.8,60.5,29.83,West,279,2.9,3.5,70,0.00,BKN,,0.00,WeatherDisplay:10.37,2013-08-03 00:12:00,
2013-08-02 20:17:00,70.8,60.5,29.83,West,271,4.3,5.8,70,0.00,BKN,,0.00,WeatherDisplay:10.37,2013-08-03 00:17:00,
2013-08-02 20:22:00,70.6,60.3,29.83,WNW,294,1.9,3.5,70,0.00,BKN,,0.00,WeatherDisplay:10.37,2013-08-03 00:22:00,
2013-08-02 20:27:00,70.6,60.3,29.83,West,279,2.7,4.6,70,0.00,BKN,,0.00,WeatherDisplay:10.37,2013-08-03 00:27:00,
2013-08-02 20:32:00,70.5,60.6,29.83,WSW,247,3.2,4.6,71,0.00,BKN,,0.00,WeatherDisplay:10.37,2013-08-03 00:32:00,
2013-08-02 20:37:00,70.4,60.5,29.84,SSW,200,0.5,2.3,71,0.00,BKN,,0.00,WeatherDisplay:10.37,2013-08-03 00:37:00,
2013-08-02 20:42:00,70.2,60.7,29.83,SSW,213,0.1,3.5,72,0.00,BKN,,0.00,WeatherDisplay:10.37,2013-08-03 00:42:00,
2013-08-02 20:47:00,70.0,60.6,29.83,SSW,210,0.9,3.5,72,0.00,BKN,,0.00,WeatherDisplay:10.37,2013-08-03 00:47:00,
2013-08-02 20:52:00,69.9,60.8,29.83,South,169,1.6,2.3,73,0.00,BKN,,0.00,WeatherDisplay:10.37,2013-08-03 00:52:00,
2013-08-02 20:58:00,69.6,60.9,29.83,SSE,163,0.2,4.6,74,0.00,BKN,,0.00,WeatherDisplay:10.37,2013-08-03 00:58:00,
2013-08-02 21:03:00,69.3,61.0,29.84,SSE,162,0.1,3.5,75,0.00,BKN,,0.00,WeatherDisplay:10.37,2013-08-03 01:03:00,
2013-08-02 21:08:00,69.0,61.1,29.84,South,174,1.7,3.5,76,0.00,BKN,,0.00,WeatherDisplay:10.37,2013-08-03 01:08:00,
2013-08-02 21:13:00,68.7,61.2,29.85,SSE,157,0.5,3.5,77,0.00,BKN,,0.00,WeatherDisplay:10.37,2013-08-03 01:13:00,
2013-08-02 21:18:00,68.4,61.3,29.84,SSW,192,1.8,3.5,78,0.00,BKN,,0.00,WeatherDisplay:10.37,2013-08-03 01:18:00,
2013-08-02 21:23:00,68.1,61.0,29.84,SSW,198,0.8,4.6,78,0.00,BKN,,0.00,WeatherDisplay:10.37,2013-08-03 01:23:00,
2013-08-02 21:29:00,67.9,60.8,29.84,SSE,150,1.5,4.6,78,0.00,BKN,,0.00,WeatherDisplay:10.37,2013-08-03 01:29:00,
2013-08-02 21:34:00,67.7,61.0,29.85,WSW,237,0.7,6.9,79,0.00,BKN,,0.00,WeatherDisplay:10.37,2013-08-03 01:34:00,
2013-08-02 21:39:00,67.7,61.3,29.85,SSE,152,1.4,3.5,80,0.00,BKN,,0.00,WeatherDisplay:10.37,2013-08-03 01:39:00,
2013-08-02 21:44:00,67.6,61.6,29.85,SSE,155,1.6,3.5,81,0.00,BKN,,0.00,WeatherDisplay:10.37,2013-08-03 01:44:00,
2013-08-02 21:49:00,67.4,61.4,29.85,SSE,161,1.2,4.0,81,0.00,BKN,,0.00,WeatherDisplay:10.37,2013-08-03 01:49:00,
2013-08-02 21:54:00,67.2,61.2,29.85,South,190,4.2,9.2,81,0.00,BKN,,0.00,WeatherDisplay:10.37,2013-08-03 01:54:00,
2013-08-02 21:59:00,66.9,61.2,29.85,SW,234,3.3,5.8,82,0.00,BKN,,0.00,WeatherDisplay:10.37,2013-08-03 01:59:00,
2013-08-02 22:04:00,66.7,61.0,29.84,South,183,3.8,5.8,82,0.00,BKN,,0.00,WeatherDisplay:10.37,2013-08-03 02:04:00,
2013-08-02 22:09:00,66.4,61.1,29.84,South,188,1.8,4.6,83,0.00,BKN,,0.00,WeatherDisplay:10.37,2013-08-03 02:09:00,
2013-08-02 22:15:00,66.3,61.0,29.85,SSW,213,0.3,3.5,83,0.00,BKN,,0.00,WeatherDisplay:10.37,2013-08-03 02:15:00,
2013-08-02 22:20:00,66.1,61.1,29.85,South,182,1.3,6.9,84,0.00,BKN,,0.00,WeatherDisplay:10.37,2013-08-03 02:20:00,
2013-08-02 22:25:00,66.0,61.0,29.85,SSW,210,2.3,4.6,84,0.00,BKN,,0.00,WeatherDisplay:10.37,2013-08-03 02:25:00,
2013-08-02 22:30:00,65.9,60.9,29.85,SSW,211,1.1,5.0,84,0.00,BKN,,0.00,WeatherDisplay:10.37,2013-08-03 02:30:00,
2013-08-02 22:35:00,65.8,60.5,29.86,SW,216,1.9,3.5,83,0.00,BKN,,0.00,WeatherDisplay:10.37,2013-08-03 02:35:00,
2013-08-02 22:40:00,65.8,60.8,29.86,SW,218,1.8,4.6,84,0.00,BKN,,0.00,WeatherDisplay:10.37,2013-08-03 02:40:00,
2013-08-02 22:45:00,65.6,60.6,29.86,SSW,205,2.4,3.5,84,0.00,BKN,,0.00,WeatherDisplay:10.37,2013-08-03 02:45:00,
2013-08-02 22:50:00,65.6,60.6,29.86,SSW,198,0.0,1.2,84,0.00,BKN,,0.00,WeatherDisplay:10.37,2013-08-03 02:50:00,
2013-08-02 22:55:00,65.5,60.5,29.85,SSW,192,0.0,0.0,84,0.00,BKN,,0.00,WeatherDisplay:10.37,2013-08-03 02:55:00,
2013-08-02 23:00:00,65.4,60.4,29.86,SSW,192,0.0,0.0,84,0.00,BKN,,0.00,WeatherDisplay:10.37,2013-08-03 03:00:00,
2013-08-02 23:01:00,65.4,60.4,29.86,SSW,192,0.0,0.0,84,0.00,BKN,,0.00,WeatherDisplay:10.37,2013-08-03 03:01:00,
2013-08-02 23:06:00,65.4,60.4,29.86,SSW,192,1.0,3.5,84,0.00,SCT,,0.00,WeatherDisplay:10.37,2013-08-03 03:06:00,
2013-08-02 23:11:00,65.3,60.3,29.86,SSW,192,0.0,0.0,84,0.00,SCT,,0.00,WeatherDisplay:10.37,2013-08-03 03:11:00,
2013-08-02 23:16:00,65.2,60.2,29.86,SSW,192,0.1,1.2,84,0.00,SCT,,0.00,WeatherDisplay:10.37,2013-08-03 03:16:00,
2013-08-02 23:22:00,65.0,60.4,29.85,SSW,192,0.0,0.0,85,0.00,SCT,,0.00,WeatherDisplay:10.37,2013-08-03 03:22:00,
2013-08-02 23:27:00,64.8,60.2,29.85,South,189,0.0,2.3,85,0.00,SCT,,0.00,WeatherDisplay:10.37,2013-08-03 03:27:00,
2013-08-02 23:32:00,64.7,60.4,29.85,South,189,0.0,0.0,86,0.00,SCT,,0.00,WeatherDisplay:10.37,2013-08-03 03:32:00,
2013-08-02 23:37:00,64.5,60.2,29.85,South,189,0.8,3.5,86,0.00,SCT,,0.00,WeatherDisplay:10.37,2013-08-03 03:37:00,
2013-08-02 23:42:00,64.3,60.3,29.86,South,189,0.0,0.0,87,0.00,SCT,,0.00,WeatherDisplay:10.37,2013-08-03 03:42:00,
2013-08-02 23:47:00,64.2,60.6,29.86,South,189,0.0,1.2,88,0.00,SCT,,0.00,WeatherDisplay:10.37,2013-08-03 03:47:00,
2013-08-02 23:52:00,64.0,60.4,29.86,South,188,1.4,2.3,88,0.00,SCT,,0.00,WeatherDisplay:10.37,2013-08-03 03:52:00,
2013-08-02 23:57:00,63.8,60.5,29.86,South,187,1.3,2.3,89,0.00,SCT,,0.00,WeatherDisplay:10.37,2013-08-03 03:57:00,